createdAt,value
2019-02-12T00:00:38.374Z,96405.9
2019-02-12T00:01:40.800Z,96406.9
2019-02-12T00:02:43.225Z,96404.4
2019-02-12T00:03:45.655Z,96406.8
2019-02-12T00:04:47.802Z,96412.3
2019-02-12T00:05:49.970Z,96410
2019-02-12T00:06:52.128Z,96405.1
2019-02-12T00:07:54.557Z,96403.6
2019-02-12T00:08:56.703Z,96402.7
2019-02-12T00:09:58.837Z,96407.2
2019-02-12T00:11:01.265Z,96411.8
2019-02-12T00:12:03.692Z,96417
2019-02-12T00:13:06.126Z,96422.4
2019-02-12T00:14:08.007Z,96420.3
2019-02-12T00:15:10.440Z,96427
2019-02-12T00:16:12.606Z,96424.9
2019-02-12T00:17:14.765Z,96428.3
2019-02-12T00:18:17.184Z,96433.1
2019-02-12T00:19:19.333Z,96433.5
2019-02-12T00:20:21.486Z,96433.5
2019-02-12T00:21:23.911Z,96438.9
2019-02-12T00:22:25.815Z,96441.2
2019-02-12T00:23:28.246Z,96444.2
2019-02-12T00:24:30.367Z,96440.5
2019-02-12T00:25:32.784Z,96444.9
2019-02-12T00:26:35.225Z,96444.2
2019-02-12T00:27:37.371Z,96447
2019-02-12T00:28:39.815Z,96446.7
2019-02-12T00:29:41.682Z,96451
2019-02-12T00:30:44.105Z,96448
2019-02-12T00:31:46.243Z,96442.8
2019-02-12T00:32:48.666Z,96450.1
2019-02-12T00:33:50.835Z,96455.2
2019-02-12T00:34:53.003Z,96454.5
2019-02-12T00:35:55.176Z,96458.3
2019-02-12T00:36:57.611Z,96460.2
2019-02-12T00:38:00.041Z,96461.8
2019-02-12T00:39:02.459Z,96462.3
2019-02-12T00:40:04.660Z,96465.9
2019-02-12T00:41:06.794Z,96462.5
2019-02-12T00:42:08.915Z,96460.3
2019-02-12T00:43:11.070Z,96461
2019-02-12T00:44:13.512Z,96467.4
2019-02-12T00:45:15.665Z,96465.8
2019-02-12T00:46:18.112Z,96472.1
2019-02-12T00:47:20.273Z,96472.9
2019-02-12T00:48:22.695Z,96477.3
2019-02-12T00:49:25.121Z,96477
2019-02-12T00:50:27.560Z,96483.5
2019-02-12T00:51:29.987Z,96484.3
2019-02-12T00:52:32.145Z,96488.9
2019-02-12T00:53:34.604Z,96490
2019-02-12T00:54:36.765Z,96487.9
2019-02-12T00:55:39.208Z,96492.8
2019-02-12T00:56:41.646Z,96487.9
2019-02-12T00:57:44.073Z,96489.2
2019-02-12T00:58:46.211Z,96490.1
2019-02-12T00:59:48.651Z,96495.1
2019-02-12T01:00:51.099Z,96495.8
2019-02-12T01:01:52.949Z,96497.4
2019-02-12T01:02:55.102Z,96495.6
2019-02-12T01:03:57.525Z,96499.4
2019-02-12T01:04:59.675Z,96496.5
2019-02-12T01:06:02.131Z,96505.6
2019-02-12T01:07:03.993Z,96513.8
2019-02-12T01:08:06.130Z,96514.1
2019-02-12T01:09:08.550Z,96513
2019-02-12T01:10:10.433Z,96515.8
2019-02-12T01:11:12.855Z,96517
2019-02-12T01:12:15.279Z,96517.6
2019-02-12T01:13:17.413Z,96514.9
2019-02-12T01:14:19.839Z,96512.5
2019-02-12T01:15:22.275Z,96514.4
2019-02-12T01:16:24.403Z,96515.8
2019-02-12T01:17:26.851Z,96511.1
2019-02-12T01:18:29.300Z,96505
2019-02-12T01:19:31.741Z,96507.8
2019-02-12T01:20:33.635Z,96507.9
2019-02-12T01:21:36.078Z,96515.9
2019-02-12T01:22:38.220Z,96514.9
2019-02-12T01:23:40.369Z,96516
2019-02-12T01:24:42.531Z,96519
2019-02-12T01:25:44.421Z,96522.6
2019-02-12T01:26:46.571Z,96526.1
2019-02-12T01:27:49.003Z,96530.8
2019-02-12T01:28:51.173Z,96534.5
2019-02-12T01:29:53.606Z,96538.1
2019-02-12T01:30:56.029Z,96538.6
2019-02-12T01:31:58.167Z,96540.8
2019-02-12T01:33:00.024Z,96538.9
2019-02-12T01:34:02.444Z,96544.1
2019-02-12T01:35:04.601Z,96546.5
2019-02-12T01:36:07.030Z,96547.8
2019-02-12T01:37:09.178Z,96545.5
2019-02-12T01:38:11.321Z,96545.4
2019-02-12T01:39:13.197Z,96542
2019-02-12T01:40:15.640Z,96541.9
2019-02-12T01:41:18.055Z,96539.2
2019-02-12T01:42:20.519Z,96535.3
2019-02-12T01:43:22.972Z,96538.2
2019-02-12T01:44:25.402Z,96538
2019-02-12T01:45:27.811Z,96533.6
2019-02-12T01:46:30.235Z,96536.5
2019-02-12T01:47:32.323Z,96532.7
2019-02-12T01:48:34.743Z,96537.9
2019-02-12T01:49:36.874Z,96540.3
2019-02-12T01:50:38.755Z,96541
2019-02-12T01:51:41.183Z,96542.1
2019-02-12T01:52:43.597Z,96550.4
2019-02-12T01:53:45.755Z,96550.8
2019-02-12T01:54:47.902Z,96553.7
2019-02-12T01:55:50.059Z,96555.7
2019-02-12T01:56:52.473Z,96565
2019-02-12T01:57:54.904Z,96567
2019-02-12T01:58:57.341Z,96569.2
2019-02-12T01:59:59.776Z,96566.4
2019-02-12T02:01:02.110Z,96570.1
2019-02-12T02:02:04.267Z,96573.3
2019-02-12T02:03:06.420Z,96574.7
2019-02-12T02:04:08.562Z,96580.4
2019-02-12T02:05:10.718Z,96578.7
2019-02-12T02:06:12.888Z,96578
2019-02-12T02:07:15.047Z,96575.4
2019-02-12T02:08:16.651Z,96574
2019-02-12T02:09:19.074Z,96575.2
2019-02-12T02:10:21.506Z,96570.1
2019-02-12T02:11:23.677Z,96572.3
2019-02-12T02:12:26.095Z,96571.7
2019-02-12T02:13:28.517Z,96570.1
2019-02-12T02:14:30.945Z,96572.1
2019-02-12T02:15:33.365Z,96572.4
2019-02-12T02:16:35.794Z,96567.5
2019-02-12T02:17:38.213Z,96563.4
2019-02-12T02:18:40.098Z,96566.7
2019-02-12T02:19:42.231Z,96563.2
2019-02-12T02:20:44.666Z,96566.1
2019-02-12T02:21:46.804Z,96566.9
2019-02-12T02:22:48.990Z,96564.5
2019-02-12T02:23:51.410Z,96562.6
2019-02-12T02:24:53.295Z,96564.6
2019-02-12T02:25:55.746Z,96568.8
2019-02-12T02:26:57.594Z,96569.5
2019-02-12T02:27:59.465Z,96567.1
2019-02-12T02:29:01.611Z,96567.8
2019-02-12T02:30:04.037Z,96566.3
2019-02-12T02:31:06.466Z,96572.2
2019-02-12T02:32:08.886Z,96573.6
2019-02-12T02:33:11.328Z,96569.9
2019-02-12T02:34:13.768Z,96581.9
2019-02-12T02:35:16.186Z,96582.1
2019-02-12T02:36:18.393Z,96584.5
2019-02-12T02:37:20.811Z,96584.6
2019-02-12T02:38:23.237Z,96589
2019-02-12T02:39:25.147Z,96584.5
2019-02-12T02:40:27.316Z,96587.2
2019-02-12T02:41:29.781Z,96585.5
2019-02-12T02:42:31.950Z,96579.2
2019-02-12T02:43:34.374Z,96583.8
2019-02-12T02:44:36.526Z,96583.7
2019-02-12T02:45:38.953Z,96589.3
2019-02-12T02:46:40.843Z,96591.8
2019-02-12T02:47:42.972Z,96599.9
2019-02-12T02:48:45.397Z,96596
2019-02-12T02:49:47.825Z,96602.6
2019-02-12T02:50:49.713Z,96595.6
2019-02-12T02:52:56.836Z,96595.4
2019-02-12T02:53:58.991Z,96594.9
2019-02-12T02:55:01.424Z,96593.4
2019-02-12T02:56:03.576Z,96589.2
2019-02-12T02:57:06.004Z,96585.1
2019-02-12T02:58:07.893Z,96582.4
2019-02-12T02:59:10.035Z,96576.5
2019-02-12T03:00:12.525Z,96576.7
2019-02-12T03:01:14.373Z,96572.6
2019-02-12T03:02:16.534Z,96571
2019-02-12T03:03:18.706Z,96566.6
2019-02-12T03:04:20.863Z,96568.7
2019-02-12T03:05:23.292Z,96569.1
2019-02-12T03:06:25.755Z,96567.8
2019-02-12T03:07:28.187Z,96568.4
2019-02-12T03:08:30.334Z,96567.5
2019-02-12T03:09:32.484Z,96567.2
2019-02-12T03:10:34.916Z,96566.6
2019-02-12T03:11:37.337Z,96568.5
2019-02-12T03:12:39.766Z,96565.4
2019-02-12T03:13:42.183Z,96568.9
2019-02-12T03:14:44.335Z,96574.4
2019-02-12T03:15:46.493Z,96577.2
2019-02-12T03:16:48.948Z,96576.6
2019-02-12T03:17:51.375Z,96575.9
2019-02-12T03:18:53.516Z,96573.9
2019-02-12T03:19:55.951Z,96576.4
2019-02-12T03:20:58.386Z,96580.5
2019-02-12T03:23:05.797Z,96582.3
2019-02-12T03:24:08.226Z,96577.4
2019-02-12T03:25:10.387Z,96580.3
2019-02-12T03:26:12.811Z,96588.6
2019-02-12T03:27:15.248Z,96581.1
2019-02-12T03:28:17.668Z,96580.4
2019-02-12T03:29:19.826Z,96577.2
2019-02-12T03:30:22.271Z,96579.9
2019-02-12T03:31:24.439Z,96582.4
2019-02-12T03:32:26.869Z,96583.2
2019-02-12T03:33:29.424Z,96586.5
2019-02-12T03:34:31.844Z,96585.8
2019-02-12T03:35:33.719Z,96586.6
2019-02-12T03:36:36.145Z,96585.8
2019-02-12T03:37:38.584Z,96589.2
2019-02-12T03:38:41.008Z,96594.1
2019-02-12T03:39:43.442Z,96598.5
2019-02-12T03:40:45.605Z,96601
2019-02-12T03:41:47.739Z,96608.6
2019-02-12T03:42:50.166Z,96609.1
2019-02-12T03:43:52.315Z,96610.8
2019-02-12T03:44:54.767Z,96613.7
2019-02-12T03:45:56.617Z,96616.4
2019-02-12T03:46:59.043Z,96617.6
2019-02-12T03:48:01.475Z,96619
2019-02-12T03:49:03.333Z,96623.9
2019-02-12T03:50:05.753Z,96631.7
2019-02-12T03:51:08.180Z,96630
2019-02-12T03:53:15.636Z,96634.4
2019-02-12T03:54:18.044Z,96634.4
2019-02-12T03:55:20.183Z,96626.3
2019-02-12T03:56:21.778Z,96633.8
2019-02-12T03:57:23.647Z,96630.9
2019-02-12T03:58:25.798Z,96634.2
2019-02-12T03:59:27.954Z,96633.7
2019-02-12T04:00:30.389Z,96630.9
2019-02-12T04:01:32.562Z,96629.5
2019-02-12T04:02:34.988Z,96628.3
2019-02-12T04:03:38.207Z,96624.7
2019-02-12T04:04:40.362Z,96624.3
2019-02-12T04:05:42.523Z,96626.5
2019-02-12T04:06:44.680Z,96620.5
2019-02-12T04:07:46.544Z,96621.3
2019-02-12T04:08:48.705Z,96627.7
2019-02-12T04:09:50.589Z,96625.6
2019-02-12T04:10:53.011Z,96627.3
2019-02-12T04:11:54.604Z,96635.6
2019-02-12T04:12:56.487Z,96634
2019-02-12T04:13:58.926Z,96631.3
2019-02-12T04:15:01.068Z,96631.5
2019-02-12T04:16:03.201Z,96631.6
2019-02-12T04:17:05.373Z,96635.9
2019-02-12T04:18:07.532Z,96642.8
2019-02-12T04:19:09.765Z,96641
2019-02-12T04:20:12.247Z,96643.8
2019-02-12T04:21:14.671Z,96642.3
2019-02-12T04:23:21.552Z,96648.7
2019-02-12T04:24:23.988Z,96655.1
2019-02-12T04:25:26.413Z,96654.6
2019-02-12T04:26:28.287Z,96653.5
2019-02-12T04:27:30.435Z,96655.8
2019-02-12T04:28:32.595Z,96653.6
2019-02-12T04:29:35.020Z,96660.7
2019-02-12T04:30:37.164Z,96655.8
2019-02-12T04:31:39.308Z,96666.9
2019-02-12T04:32:41.734Z,96656.4
2019-02-12T04:33:43.907Z,96659
2019-02-12T04:34:46.328Z,96659.7
2019-02-12T04:35:48.810Z,96654.6
2019-02-12T04:36:50.669Z,96653
2019-02-12T04:37:52.821Z,96651.3
2019-02-12T04:38:55.244Z,96652.9
2019-02-12T04:39:57.667Z,96651.9
2019-02-12T04:41:00.091Z,96657.2
2019-02-12T04:42:02.518Z,96657.3
2019-02-12T04:43:04.952Z,96657.7
2019-02-12T04:44:07.373Z,96654.7
2019-02-12T04:45:09.798Z,96659.2
2019-02-12T04:46:12.226Z,96664.6
2019-02-12T04:47:14.373Z,96659.3
2019-02-12T04:48:16.233Z,96658.9
2019-02-12T04:49:18.122Z,96661.9
2019-02-12T04:50:20.270Z,96658.1
2019-02-12T04:51:22.715Z,96659.6
2019-02-12T04:53:29.844Z,96655.1
2019-02-12T04:54:32.294Z,96653.9
2019-02-12T04:55:34.466Z,96658.8
2019-02-12T04:56:36.614Z,96657.3
2019-02-12T04:57:39.048Z,96655.6
2019-02-12T04:58:41.473Z,96660.4
2019-02-12T04:59:43.895Z,96666.4
2019-02-12T05:00:46.048Z,96664.4
2019-02-12T05:01:48.472Z,96668.3
2019-02-12T05:02:50.896Z,96668.9
2019-02-12T05:03:53.035Z,96668.8
2019-02-12T05:04:55.205Z,96665
2019-02-12T05:05:57.712Z,96664
2019-02-12T05:06:59.863Z,96660.4
2019-02-12T05:08:01.994Z,96665.3
2019-02-12T05:09:04.422Z,96661.2
2019-02-12T05:10:06.575Z,96663.4
2019-02-12T05:11:08.726Z,96665.3
2019-02-12T05:12:10.941Z,96667.7
2019-02-12T05:13:12.819Z,96674.7
2019-02-12T05:14:14.670Z,96674
2019-02-12T05:15:17.435Z,96680
2019-02-12T05:16:19.614Z,96683.2
2019-02-12T05:17:21.778Z,96681.8
2019-02-12T05:18:24.197Z,96689.1
2019-02-12T05:19:26.446Z,96683.6
2019-02-12T05:20:28.871Z,96686.9
2019-02-12T05:21:31.310Z,96689.2
2019-02-12T05:23:38.444Z,96687.7
2019-02-12T05:24:40.882Z,96680.1
2019-02-12T05:25:43.335Z,96685.5
2019-02-12T05:26:45.789Z,96681
2019-02-12T05:27:47.683Z,96681.9
2019-02-12T05:28:50.126Z,96686.6
2019-02-12T05:29:52.292Z,96685.3
2019-02-12T05:30:54.716Z,96688.5
2019-02-12T05:31:57.140Z,96688.9
2019-02-12T05:32:59.575Z,96691
2019-02-12T05:34:01.747Z,96695.8
2019-02-12T05:35:04.085Z,96696.3
2019-02-12T05:36:06.233Z,96699
2019-02-12T05:37:08.674Z,96699.5
2019-02-12T05:38:11.110Z,96699.9
2019-02-12T05:39:13.267Z,96696.9
2019-02-12T05:40:15.705Z,96697.1
2019-02-12T05:41:18.143Z,96699.6
2019-02-12T05:42:20.271Z,96704.8
2019-02-12T05:43:22.169Z,96700.1
2019-02-12T05:44:24.323Z,96707.2
2019-02-12T05:45:26.487Z,96706.6
2019-02-12T05:46:28.913Z,96707.6
2019-02-12T05:47:31.076Z,96703.6
2019-02-12T05:48:33.513Z,96708.1
2019-02-12T05:49:35.675Z,96700.9
2019-02-12T05:50:38.098Z,96699.4
2019-02-12T05:51:39.700Z,96701.8
2019-02-12T05:52:42.218Z,96699.4
2019-02-12T05:53:44.091Z,96697.1
2019-02-12T05:54:45.675Z,96697.1
2019-02-12T05:55:48.102Z,96696.3
2019-02-12T05:56:50.263Z,96698.3
2019-02-12T05:57:52.755Z,96704.1
2019-02-12T05:58:55.176Z,96703.3
2019-02-12T05:59:57.319Z,96698
2019-02-12T06:00:59.754Z,96705.7
2019-02-12T06:02:01.915Z,96701.5
2019-02-12T06:03:04.345Z,96706.7
2019-02-12T06:04:06.225Z,96710.9
2019-02-12T06:05:08.417Z,96708.2
2019-02-12T06:06:10.845Z,96707.8
2019-02-12T06:07:13.271Z,96714
2019-02-12T06:08:15.465Z,96714.7
2019-02-12T06:09:17.925Z,96711.7
2019-02-12T06:10:20.397Z,96712.1
2019-02-12T06:11:22.815Z,96719.4
2019-02-12T06:12:24.986Z,96726.7
2019-02-12T06:13:27.412Z,96731
2019-02-12T06:14:29.839Z,96732.9
2019-02-12T06:15:31.969Z,96733.8
2019-02-12T06:16:34.405Z,96734.7
2019-02-12T06:17:36.842Z,96731.4
2019-02-12T06:18:39.265Z,96734.6
2019-02-12T06:19:41.424Z,96734.5
2019-02-12T06:20:43.580Z,96738.7
2019-02-12T06:21:45.721Z,96737.2
2019-02-12T06:22:48.169Z,96738.9
2019-02-12T06:23:50.613Z,96739.2
2019-02-12T06:24:53.054Z,96739.8
2019-02-12T06:25:55.500Z,96746.5
2019-02-12T06:26:59.182Z,96748.7
2019-02-12T06:28:01.396Z,96747.4
2019-02-12T06:29:03.553Z,96748.5
2019-02-12T06:30:05.718Z,96746.7
2019-02-12T06:31:07.860Z,96749.7
2019-02-12T06:32:09.752Z,96745.8
2019-02-12T06:33:12.207Z,96749.2
2019-02-12T06:34:14.415Z,96751.3
2019-02-12T06:35:16.845Z,96748.3
2019-02-12T06:36:19.273Z,96744.4
2019-02-12T06:37:21.422Z,96750.7
2019-02-12T06:38:23.578Z,96749.3
2019-02-12T06:39:26.010Z,96750.7
2019-02-12T06:40:28.461Z,96752.2
2019-02-12T06:41:30.882Z,96753.3
2019-02-12T06:42:33.315Z,96756
2019-02-12T06:43:35.476Z,96749
2019-02-12T06:44:37.668Z,96753.3
2019-02-12T06:45:40.103Z,96755.3
2019-02-12T06:46:42.527Z,96755.3
2019-02-12T06:47:44.382Z,96756.3
2019-02-12T06:48:46.533Z,96756.1
2019-02-12T06:49:48.693Z,96752.5
2019-02-12T06:50:51.138Z,96755.4
2019-02-12T06:51:53.279Z,96753.9
2019-02-12T06:52:55.424Z,96755.9
2019-02-12T06:53:57.856Z,96763.1
2019-02-12T06:55:00.348Z,96759.1
2019-02-12T06:56:02.863Z,96751.7
2019-02-12T06:57:04.748Z,96761.2
2019-02-12T06:58:06.653Z,96758.9
2019-02-12T06:59:09.079Z,96767.8
2019-02-12T07:00:10.958Z,96768
2019-02-12T07:01:13.419Z,96770.3
2019-02-12T07:02:15.841Z,96775
2019-02-12T07:03:18.002Z,96768.3
2019-02-12T07:04:20.424Z,96765.1
2019-02-12T07:05:22.565Z,96764.7
2019-02-12T07:06:24.997Z,96764.5
2019-02-12T07:07:26.936Z,96771.3
2019-02-12T07:08:29.429Z,96774.5
2019-02-12T07:09:31.859Z,96779
2019-02-12T07:10:34.009Z,96780.8
2019-02-12T07:11:36.448Z,96789.7
2019-02-12T07:12:38.613Z,96788.1
2019-02-12T07:13:41.055Z,96791.7
2019-02-12T07:14:43.488Z,96791.3
2019-02-12T07:15:45.913Z,96792.3
2019-02-12T07:16:48.344Z,96789.7
2019-02-12T07:17:50.502Z,96789.9
2019-02-12T07:18:55.041Z,96795.2
2019-02-12T07:19:57.477Z,96796
2019-02-12T07:20:59.664Z,96803.9
2019-02-12T07:22:02.116Z,96805.4
2019-02-12T07:23:04.322Z,96805.9
2019-02-12T07:24:06.460Z,96805.8
2019-02-12T07:25:08.609Z,96808.4
2019-02-12T07:26:11.033Z,96813.3
2019-02-12T07:27:13.467Z,96810.5
2019-02-12T07:28:15.946Z,96814.3
2019-02-12T07:29:18.507Z,96812.3
2019-02-12T07:30:20.646Z,96816.3
2019-02-12T07:31:22.812Z,96825.8
2019-02-12T07:32:24.984Z,96825.5
2019-02-12T07:33:27.412Z,96832.8
2019-02-12T07:34:29.845Z,96835.3
2019-02-12T07:35:32.005Z,96838.5
2019-02-12T07:36:34.131Z,96838.1
2019-02-12T07:37:36.301Z,96842.1
2019-02-12T07:38:38.430Z,96848.3
2019-02-12T07:39:40.886Z,96850.8
2019-02-12T07:40:43.023Z,96849.8
2019-02-12T07:41:45.199Z,96850.2
2019-02-12T07:42:47.355Z,96852.1
2019-02-12T07:43:49.519Z,96854.1
2019-02-12T07:44:51.398Z,96856.4
2019-02-12T07:45:53.576Z,96857.5
2019-02-12T07:46:55.752Z,96861.5
2019-02-12T07:47:57.935Z,96863.7
2019-02-12T07:49:00.374Z,96863.5
2019-02-12T07:50:02.847Z,96861.2
2019-02-12T07:51:05.281Z,96858.6
2019-02-12T07:52:07.722Z,96861.1
2019-02-12T07:53:09.895Z,96866.9
2019-02-12T07:54:11.881Z,96869.5
2019-02-12T07:55:14.377Z,96867.4
2019-02-12T07:56:16.826Z,96871.9
2019-02-12T07:57:18.996Z,96866.6
2019-02-12T07:58:21.385Z,96868.5
2019-02-12T07:59:23.824Z,96872.9
2019-02-12T08:00:26.270Z,96869.5
2019-02-12T08:01:28.693Z,96872.4
2019-02-12T08:02:31.129Z,96878.1
2019-02-12T08:03:35.505Z,96874.7
2019-02-12T08:04:37.955Z,96875.9
2019-02-12T08:05:40.394Z,96879.3
2019-02-12T08:06:42.819Z,96884.9
2019-02-12T08:07:45.254Z,96883.1
2019-02-12T08:08:47.683Z,96878.2
2019-02-12T08:09:50.118Z,96883.9
2019-02-12T08:10:52.571Z,96877.9
2019-02-12T08:11:54.705Z,96880.9
2019-02-12T08:12:56.872Z,96880
2019-02-12T08:13:59.032Z,96882
2019-02-12T08:15:01.605Z,96883.8
2019-02-12T08:16:03.773Z,96880.2
2019-02-12T08:17:06.195Z,96879
2019-02-12T08:18:08.668Z,96877.3
2019-02-12T08:19:11.079Z,96877.5
2019-02-12T08:20:13.239Z,96872.2
2019-02-12T08:21:15.100Z,96871.8
2019-02-12T08:22:17.527Z,96873.4
2019-02-12T08:23:19.981Z,96870.2
2019-02-12T08:24:22.409Z,96876.6
2019-02-12T08:25:24.595Z,96878.5
2019-02-12T08:26:26.754Z,96877.7
2019-02-12T08:27:29.211Z,96876.3
2019-02-12T08:28:31.349Z,96879.9
2019-02-12T08:29:33.527Z,96881
2019-02-12T08:30:35.975Z,96884.9
2019-02-12T08:31:38.421Z,96886.2
2019-02-12T08:32:40.836Z,96892.3
2019-02-12T08:33:43.279Z,96880.7
2019-02-12T08:34:46.482Z,96877
2019-02-12T08:36:53.881Z,96873.5
2019-02-12T08:37:56.297Z,96875.5
2019-02-12T08:38:58.720Z,96873.6
2019-02-12T08:40:01.196Z,96875.1
2019-02-12T08:41:03.109Z,96875.2
2019-02-12T08:42:05.270Z,96877.1
2019-02-12T08:43:07.707Z,96879.5
2019-02-12T08:44:10.164Z,96881.8
2019-02-12T08:45:12.599Z,96888.8
2019-02-12T08:46:14.765Z,96890.6
2019-02-12T08:47:17.189Z,96884.5
2019-02-12T08:48:19.635Z,96882.7
2019-02-12T08:49:22.058Z,96890.3
2019-02-12T08:50:24.494Z,96893.6
2019-02-12T08:51:26.635Z,96899.8
2019-02-12T08:52:28.783Z,96897.3
2019-02-12T08:53:31.203Z,96899.5
2019-02-12T08:54:33.642Z,96898.6
2019-02-12T08:55:38.013Z,96899.9
2019-02-12T08:56:40.479Z,96903.9
2019-02-12T08:57:42.957Z,96905.8
2019-02-12T08:58:45.108Z,96903.9
2019-02-12T08:59:47.575Z,96910.5
2019-02-12T09:00:49.750Z,96904.5
2019-02-12T09:01:51.648Z,96905.6
2019-02-12T09:02:54.098Z,96902.9
2019-02-12T09:03:56.526Z,96901.8
2019-02-12T09:04:58.946Z,96905
2019-02-12T09:06:01.112Z,96908.3
2019-02-12T09:07:08.045Z,96905
2019-02-12T09:08:09.903Z,96907.8
2019-02-12T09:09:11.793Z,96911.7
2019-02-12T09:10:13.947Z,96908.6
2019-02-12T09:11:15.839Z,96907.9
2019-02-12T09:12:18.264Z,96909.2
2019-02-12T09:13:20.388Z,96909.9
2019-02-12T09:14:22.816Z,96912.7
2019-02-12T09:15:24.977Z,96915.9
2019-02-12T09:16:27.126Z,96913
2019-02-12T09:17:29.563Z,96912.2
2019-02-12T09:18:32.006Z,96916.1
2019-02-12T09:19:34.149Z,96915.4
2019-02-12T09:20:36.312Z,96916.9
2019-02-12T09:21:38.921Z,96918.5
2019-02-12T09:22:41.085Z,96916.9
2019-02-12T09:23:43.519Z,96914.9
2019-02-12T09:24:45.935Z,96920.3
2019-02-12T09:25:48.074Z,96925.1
2019-02-12T09:26:50.515Z,96928.7
2019-02-12T09:27:52.362Z,96929.8
2019-02-12T09:28:54.585Z,96932.4
2019-02-12T09:29:56.744Z,96934.2
2019-02-12T09:30:59.177Z,96936.3
2019-02-12T09:32:01.336Z,96933.8
2019-02-12T09:33:03.505Z,96935.1
2019-02-12T09:34:05.939Z,96940.6
2019-02-12T09:35:08.369Z,96941.7
2019-02-12T09:36:10.785Z,96935.9
2019-02-12T09:37:13.216Z,96937.3
2019-02-12T09:38:15.359Z,96942.9
2019-02-12T09:39:17.799Z,96941.6
2019-02-12T09:40:20.936Z,96939.6
2019-02-12T09:41:23.093Z,96938.8
2019-02-12T09:42:25.251Z,96934.6
2019-02-12T09:43:27.685Z,96943.7
2019-02-12T09:44:30.112Z,96943.4
2019-02-12T09:45:32.551Z,96944.4
2019-02-12T09:46:35.030Z,96938.2
2019-02-12T09:47:37.445Z,96942.3
2019-02-12T09:48:39.881Z,96937.9
2019-02-12T09:49:41.755Z,96933.2
2019-02-12T09:50:43.929Z,96940.8
2019-02-12T09:51:46.384Z,96937.4
2019-02-12T09:52:48.816Z,96936.1
2019-02-12T09:53:51.249Z,96936.9
2019-02-12T09:54:55.354Z,96936.2
2019-02-12T09:55:57.803Z,96938.3
2019-02-12T09:56:59.971Z,96936.6
2019-02-12T09:58:02.155Z,96936.1
2019-02-12T09:59:04.338Z,96940.2
2019-02-12T10:01:12.245Z,96940.5
2019-02-12T10:02:14.396Z,96937.8
2019-02-12T10:03:16.292Z,96941.6
2019-02-12T10:04:18.463Z,96938.8
2019-02-12T10:05:20.605Z,96942.6
2019-02-12T10:07:27.594Z,96935.3
2019-02-12T10:08:30.101Z,96943.6
2019-02-12T10:09:32.523Z,96945.1
2019-02-12T10:10:34.955Z,96947.9
2019-02-12T10:11:37.375Z,96943.6
2019-02-12T10:12:39.796Z,96943.2
2019-02-12T10:13:42.215Z,96942.5
2019-02-12T10:14:44.645Z,96946.4
2019-02-12T10:15:47.062Z,96950.1
2019-02-12T10:16:49.479Z,96950.7
2019-02-12T10:17:51.905Z,96952.5
2019-02-12T10:18:54.059Z,96950.4
2019-02-12T10:19:56.481Z,96953.8
2019-02-12T10:20:58.923Z,96951.9
2019-02-12T10:22:01.359Z,96955.5
2019-02-12T10:23:03.500Z,96953.4
2019-02-12T10:24:05.677Z,96954.2
2019-02-12T10:25:08.105Z,96952.7
2019-02-12T10:26:10.546Z,96951.9
2019-02-12T10:27:12.980Z,96950.8
2019-02-12T10:28:15.408Z,96956.9
2019-02-12T10:29:17.557Z,96953.8
2019-02-12T10:30:19.974Z,96957.9
2019-02-12T10:31:21.829Z,96959.9
2019-02-12T10:32:23.431Z,96956.1
2019-02-12T10:33:25.856Z,96958.1
2019-02-12T10:34:28.299Z,96960.6
2019-02-12T10:35:30.725Z,96962.5
2019-02-12T10:36:32.908Z,96958.5
2019-02-12T10:37:35.338Z,96963.3
2019-02-12T10:38:37.760Z,96963.3
2019-02-12T10:39:40.182Z,96962.6
2019-02-12T10:40:42.331Z,96958.2
2019-02-12T10:41:44.804Z,96961.7
2019-02-12T10:42:47.240Z,96958.2
2019-02-12T10:43:49.094Z,96963.7
2019-02-12T10:44:51.265Z,96956.5
2019-02-12T10:45:53.695Z,96958
2019-02-12T10:46:55.855Z,96952.9
2019-02-12T10:47:57.746Z,96955.2
2019-02-12T10:49:00.163Z,96956.7
2019-02-12T10:50:02.613Z,96959.6
2019-02-12T10:51:04.774Z,96961.9
2019-02-12T10:52:06.655Z,96958.2
2019-02-12T10:53:10.219Z,96965.5
2019-02-12T10:55:17.630Z,96959.8
2019-02-12T10:56:20.078Z,96963.3
2019-02-12T10:57:21.946Z,96960.7
2019-02-12T10:58:24.087Z,96956.4
2019-02-12T10:59:26.518Z,96960.8
2019-02-12T11:00:28.967Z,96957.4
2019-02-12T11:01:31.398Z,96957.6
2019-02-12T11:02:33.822Z,96955.7
2019-02-12T11:03:35.686Z,96950.5
2019-02-12T11:04:38.113Z,96949.4
2019-02-12T11:05:40.290Z,96954.2
2019-02-12T11:06:42.431Z,96953.5
2019-02-12T11:07:44.874Z,96953.1
2019-02-12T11:08:47.308Z,96953.7
2019-02-12T11:09:49.733Z,96948.9
2019-02-12T11:10:51.883Z,96954.1
2019-02-12T11:11:54.323Z,96952.3
2019-02-12T11:12:56.755Z,96953.6
2019-02-12T11:13:58.918Z,96955.4
2019-02-12T11:15:01.348Z,96952.5
2019-02-12T11:16:03.814Z,96954.9
2019-02-12T11:17:05.998Z,96955.7
2019-02-12T11:18:07.884Z,96966.4
2019-02-12T11:19:10.304Z,96958
2019-02-12T11:20:12.735Z,96967.2
2019-02-12T11:21:15.190Z,96955.5
2019-02-12T11:22:17.385Z,96958.7
2019-02-12T11:23:19.837Z,96965.3
2019-02-12T11:24:22.275Z,96964
2019-02-12T11:25:24.443Z,96960.5
2019-02-12T11:26:26.622Z,96960.3
2019-02-12T11:27:28.534Z,96969.6
2019-02-12T11:28:30.687Z,96957.5
2019-02-12T11:29:32.862Z,96960.3
2019-02-12T11:30:34.991Z,96960.8
2019-02-12T11:31:37.141Z,96957.6
2019-02-12T11:32:39.561Z,96957.8
2019-02-12T11:33:42.002Z,96962.3
2019-02-12T11:34:44.448Z,96963.8
2019-02-12T11:35:46.879Z,96961.9
2019-02-12T11:36:49.060Z,96958.1
2019-02-12T11:37:51.495Z,96958.1
2019-02-12T11:38:53.933Z,96955.5
2019-02-12T11:39:56.086Z,96958
2019-02-12T11:40:58.510Z,96950.5
2019-02-12T11:42:00.673Z,96958.5
2019-02-12T11:43:03.106Z,96955.2
2019-02-12T11:44:04.958Z,96954
2019-02-12T11:45:07.384Z,96950.7
2019-02-12T11:46:09.823Z,96949.7
2019-02-12T11:47:11.971Z,96945.6
2019-02-12T11:48:14.123Z,96942.7
2019-02-12T11:49:16.285Z,96949.8
2019-02-12T11:50:18.714Z,96944.3
2019-02-12T11:51:20.873Z,96946.1
2019-02-12T11:52:23.306Z,96946.9
2019-02-12T11:53:25.737Z,96945.4
2019-02-12T11:54:29.744Z,96954.2
2019-02-12T11:55:32.171Z,96952.5
2019-02-12T11:56:34.615Z,96954.1
2019-02-12T11:57:37.033Z,96949.8
2019-02-12T11:58:39.487Z,96947.7
2019-02-12T11:59:41.384Z,96949.5
2019-02-12T12:00:43.815Z,96940.5
2019-02-12T12:01:46.262Z,96947.8
2019-02-12T12:02:48.693Z,96938.6
2019-02-12T12:03:50.861Z,96944.2
2019-02-12T12:04:52.999Z,96943.8
2019-02-12T12:05:55.149Z,96937.1
2019-02-12T12:06:57.569Z,96949.7
2019-02-12T12:07:59.993Z,96940.6
2019-02-12T12:09:02.163Z,96945.6
2019-02-12T12:10:04.592Z,96946.4
2019-02-12T12:11:06.743Z,96948.2
2019-02-12T12:12:08.904Z,96950.4
2019-02-12T12:13:11.340Z,96951.1
2019-02-12T12:14:13.769Z,96949.7
2019-02-12T12:15:15.632Z,96956.9
2019-02-12T12:16:17.797Z,96964.1
2019-02-12T12:17:19.680Z,96966.7
2019-02-12T12:18:21.844Z,96958.7
2019-02-12T12:19:23.457Z,96959.4
2019-02-12T12:20:25.897Z,96956.3
2019-02-12T12:21:28.313Z,96956.8
2019-02-12T12:22:30.195Z,96952.5
2019-02-12T12:23:32.363Z,96953.7
2019-02-12T12:24:34.523Z,96958.7
2019-02-12T12:25:36.978Z,96955.3
2019-02-12T12:26:39.133Z,96951.4
2019-02-12T12:27:41.581Z,96956.6
2019-02-12T12:28:44.873Z,96956.3
2019-02-12T12:29:47.016Z,96957.7
2019-02-12T12:30:49.206Z,96961.7
2019-02-12T12:31:51.689Z,96966.3
2019-02-12T12:32:54.126Z,96963.8
2019-02-12T12:33:56.558Z,96961.2
2019-02-12T12:35:00.249Z,96960.7
2019-02-12T12:36:02.098Z,96961.3
2019-02-12T12:37:04.544Z,96964.2
2019-02-12T12:38:06.420Z,96956.3
2019-02-12T12:39:08.872Z,96961.3
2019-02-12T12:40:11.025Z,96958.1
2019-02-12T12:41:13.453Z,96956.9
2019-02-12T12:42:15.875Z,96960.6
2019-02-12T12:43:18.388Z,96960.3
2019-02-12T12:44:20.921Z,96965.4
2019-02-12T12:45:23.077Z,96964.6
2019-02-12T12:46:25.250Z,96968.3
2019-02-12T12:47:27.388Z,96969.1
2019-02-12T12:48:29.544Z,96967.7